createdAt,value
2022-08-19T00:01:30.285Z,99528.69
2022-08-19T00:03:58.813Z,99535.88
2022-08-19T00:06:26.548Z,99535.75
2022-08-19T00:08:54.228Z,99534.81
2022-08-19T00:11:26.058Z,99541.69
2022-08-19T00:13:54.370Z,99536.44
2022-08-19T00:16:26.786Z,99553.00
2022-08-19T00:18:56.085Z,99547.06
2022-08-19T00:21:24.245Z,99547.22
2022-08-19T00:23:52.316Z,99547.38
2022-08-19T00:26:20.039Z,99541.56
2022-08-19T00:28:48.169Z,99545.06
2022-08-19T00:31:17.212Z,99543.28
2022-08-19T00:33:46.278Z,99541.56
2022-08-19T00:36:14.382Z,99544.19
2022-08-19T00:38:43.816Z,99544.13
2022-08-19T00:41:12.004Z,99544.22
2022-08-19T00:43:41.294Z,99540.72
2022-08-19T00:46:09.344Z,99538.03
2022-08-19T00:48:38.019Z,99529.06
2022-08-19T00:51:07.959Z,99507.28
2022-08-19T00:53:35.985Z,99493.31
2022-08-19T00:56:07.122Z,99486.28
2022-08-19T00:58:36.197Z,99505.78
2022-08-19T01:01:05.273Z,99518.31
2022-08-19T01:03:56.903Z,99528.88
2022-08-19T01:06:22.126Z,99534.00
2022-08-19T01:08:50.159Z,99528.69
2022-08-19T01:11:18.447Z,99531.25
2022-08-19T01:13:49.877Z,99531.25
2022-08-19T01:16:20.603Z,99540.88
2022-08-19T01:18:48.876Z,99544.47
2022-08-19T01:21:23.838Z,99532.41
2022-08-19T01:23:52.850Z,99519.44
2022-08-19T01:26:23.676Z,99523.25
2022-08-19T01:28:54.709Z,99519.91
2022-08-19T01:31:32.766Z,99528.69
2022-08-19T01:34:01.488Z,99522.41
2022-08-19T01:36:32.441Z,99523.25
2022-08-19T01:39:02.539Z,99521.44
2022-08-19T01:41:30.156Z,99525.75
2022-08-19T01:44:13.905Z,99517.81
2022-08-19T01:46:46.868Z,99517.53
2022-08-19T01:49:14.479Z,99508.75
2022-08-19T01:51:42.088Z,99514.13
2022-08-19T01:54:13.415Z,99522.97
2022-08-19T01:56:41.123Z,99529.94
2022-08-19T01:59:14.178Z,99523.25
2022-08-19T02:01:42.662Z,99523.47
2022-08-19T02:04:10.298Z,99529.78
2022-08-19T02:06:38.230Z,99529.28
2022-08-19T02:09:07.264Z,99524.09
2022-08-19T02:11:38.420Z,99526.75
2022-08-19T02:14:09.467Z,99524.97
2022-08-19T02:16:38.247Z,99525.63
2022-08-19T02:19:06.591Z,99523.09
2022-08-19T02:21:34.492Z,99525.91
2022-08-19T02:24:02.368Z,99527.59
2022-08-19T02:26:30.430Z,99532.78
2022-08-19T02:28:59.507Z,99535.59
2022-08-19T02:31:28.837Z,99527.72
2022-08-19T02:33:57.027Z,99527.72
2022-08-19T02:36:26.245Z,99525.09
2022-08-19T02:38:55.001Z,99531.34
2022-08-19T02:41:26.896Z,99526.00
2022-08-19T02:44:26.524Z,99531.88
2022-08-19T02:46:45.648Z,99536.13
2022-08-19T02:49:13.349Z,99530.78
2022-08-19T02:51:44.493Z,99530.69
2022-08-19T02:54:14.390Z,99528.06
2022-08-19T02:56:43.489Z,99527.25
2022-08-19T02:59:11.877Z,99527.34
2022-08-19T03:01:41.556Z,99518.69
2022-08-19T03:04:15.149Z,99516.97
2022-08-19T03:06:44.551Z,99512.53
2022-08-19T03:09:13.108Z,99525.72
2022-08-19T03:11:41.439Z,99527.06
2022-08-19T03:14:10.876Z,99531.84
2022-08-19T03:16:44.278Z,99533.00
2022-08-19T03:19:13.805Z,99537.78
2022-08-19T03:21:41.421Z,99534.00
2022-08-19T03:24:10.812Z,99539.13
2022-08-19T03:26:41.439Z,99540.78
2022-08-19T03:29:11.739Z,99543.38
2022-08-19T03:31:52.565Z,99542.66
2022-08-19T03:34:26.980Z,99534.16
2022-08-19T03:36:55.886Z,99540.25
2022-08-19T03:39:24.800Z,99534.06
2022-08-19T03:42:32.734Z,99532.97
2022-08-19T03:44:46.551Z,99532.53
2022-08-19T03:47:16.962Z,99526.44
2022-08-19T03:49:46.597Z,99526.28
2022-08-19T03:52:15.053Z,99527.97
2022-08-19T03:54:42.893Z,99541.03
2022-08-19T03:57:11.297Z,99533.22
2022-08-19T03:59:39.603Z,99532.38
2022-08-19T04:02:10.666Z,99529.69
2022-08-19T04:04:39.289Z,99524.28
2022-08-19T04:07:09.235Z,99517.00
2022-08-19T04:09:37.565Z,99526.75
2022-08-19T04:12:07.173Z,99538.69
2022-08-19T04:14:36.095Z,99546.44
2022-08-19T04:17:05.493Z,99555.53
2022-08-19T04:19:33.830Z,99559.41
2022-08-19T04:22:01.577Z,99556.91
2022-08-19T04:24:30.522Z,99552.25
2022-08-19T04:26:59.099Z,99554.00
2022-08-19T04:29:27.852Z,99545.53
2022-08-19T04:31:57.253Z,99545.63
2022-08-19T04:34:27.525Z,99549.97
2022-08-19T04:36:57.024Z,99556.91
2022-08-19T04:39:47.001Z,99556.13
2022-08-19T04:42:33.595Z,99563.97
2022-08-19T04:45:01.663Z,99561.25
2022-08-19T04:47:51.409Z,99555.38
2022-08-19T04:50:17.557Z,99556.69
2022-08-19T04:52:46.777Z,99551.47
2022-08-19T04:55:15.389Z,99558.00
2022-08-19T04:57:44.324Z,99557.66
2022-08-19T05:00:13.173Z,99565.13
2022-08-19T05:02:41.401Z,99563.69
2022-08-19T05:05:09.848Z,99557.44
2022-08-19T05:07:39.043Z,99560.16
2022-08-19T05:10:08.202Z,99555.78
2022-08-19T05:12:35.896Z,99561.25
2022-08-19T05:15:06.941Z,99563.13
2022-08-19T05:17:38.244Z,99566.66
2022-08-19T05:20:26.608Z,99569.16
2022-08-19T05:22:54.470Z,99574.66
2022-08-19T05:25:24.270Z,99572.09
2022-08-19T05:27:51.907Z,99577.91
2022-08-19T05:30:33.368Z,99587.13
2022-08-19T05:33:10.874Z,99601.84
2022-08-19T05:35:38.940Z,99606.03
2022-08-19T05:38:08.080Z,99614.47
2022-08-19T05:40:36.916Z,99617.31
2022-08-19T05:43:05.396Z,99631.28
2022-08-19T05:45:34.944Z,99633.06
2022-08-19T05:48:02.563Z,99626.06
2022-08-19T05:50:30.857Z,99634.78
2022-08-19T05:52:58.687Z,99634.72
2022-08-19T05:55:26.265Z,99645.25
2022-08-19T05:57:53.903Z,99650.44
2022-08-19T06:00:24.690Z,99645.31
2022-08-19T06:02:55.635Z,99647.78
2022-08-19T06:05:23.413Z,99643.31
2022-08-19T06:07:51.008Z,99645.50
2022-08-19T06:10:18.721Z,99635.44
2022-08-19T06:12:46.336Z,99647.19
2022-08-19T06:15:15.814Z,99643.53
2022-08-19T06:17:45.221Z,99650.59
2022-08-19T06:20:20.303Z,99645.34
2022-08-19T06:22:57.432Z,99645.28
2022-08-19T06:25:28.869Z,99646.00
2022-08-19T06:28:14.663Z,99648.38
2022-08-19T06:30:43.092Z,99651.75
2022-08-19T06:33:10.671Z,99649.84
2022-08-19T06:35:42.488Z,99656.75
2022-08-19T06:38:10.329Z,99652.81
2022-08-19T06:40:38.655Z,99652.69
2022-08-19T06:43:08.623Z,99657.25
2022-08-19T06:45:39.615Z,99664.56
2022-08-19T06:48:08.272Z,99653.69
2022-08-19T06:50:39.323Z,99655.94
2022-08-19T06:53:08.740Z,99645.19
2022-08-19T06:55:36.417Z,99639.94
2022-08-19T06:58:04.991Z,99639.94
2022-08-19T07:00:34.646Z,99646.81
2022-08-19T07:03:06.084Z,99650.03
2022-08-19T07:05:40.132Z,99652.22
2022-08-19T07:08:14.365Z,99656.50
2022-08-19T07:10:45.712Z,99656.50
2022-08-19T07:13:13.421Z,99659.25
2022-08-19T07:15:41.120Z,99664.94
2022-08-19T07:18:11.620Z,99660.38
2022-08-19T07:20:40.030Z,99658.09
2022-08-19T07:23:09.532Z,99657.06
2022-08-19T07:25:40.440Z,99658.59
2022-08-19T07:28:22.422Z,99661.84
2022-08-19T07:30:52.890Z,99658.13
2022-08-19T07:33:20.668Z,99652.28
2022-08-19T07:35:48.268Z,99659.06
2022-08-19T07:38:17.074Z,99666.59
2022-08-19T07:40:47.098Z,99657.72
2022-08-19T07:43:17.068Z,99670.50
2022-08-19T07:45:47.848Z,99667.53
2022-08-19T07:48:15.812Z,99663.94
2022-08-19T07:50:43.444Z,99674.16
2022-08-19T07:53:12.711Z,99671.19
2022-08-19T07:55:43.561Z,99666.69
2022-08-19T07:58:16.731Z,99670.09
2022-08-19T08:00:45.074Z,99670.09
2022-08-19T08:03:13.744Z,99671.56
2022-08-19T08:05:59.423Z,99673.13
2022-08-19T08:08:48.177Z,99660.56
2022-08-19T08:11:19.994Z,99664.44
2022-08-19T08:14:00.945Z,99668.94
2022-08-19T08:16:33.255Z,99674.00
2022-08-19T08:19:02.565Z,99671.03
2022-08-19T08:21:35.557Z,99664.16
2022-08-19T08:24:03.294Z,99673.88
2022-08-19T08:26:30.896Z,99667.09
2022-08-19T08:29:12.302Z,99671.97
2022-08-19T08:31:41.811Z,99665.72
2022-08-19T08:34:10.093Z,99675.97
2022-08-19T08:36:42.520Z,99682.78
2022-08-19T08:39:10.301Z,99683.81
2022-08-19T08:41:47.397Z,99683.75
2022-08-19T08:44:22.098Z,99674.28
2022-08-19T08:46:53.599Z,99680.72
2022-08-19T08:49:32.373Z,99678.88
2022-08-19T08:52:05.707Z,99672.00
2022-08-19T08:54:35.533Z,99669.06
2022-08-19T08:57:06.166Z,99672.00
2022-08-19T08:59:38.910Z,99667.31
2022-08-19T09:02:06.770Z,99667.84
2022-08-19T09:04:45.333Z,99673.34
2022-08-19T09:07:34.683Z,99672.16
2022-08-19T09:10:10.067Z,99676.78
2022-08-19T09:12:49.843Z,99676.22
2022-08-19T09:15:29.938Z,99680.81
2022-08-19T09:18:04.273Z,99677.78
2022-08-19T09:20:35.111Z,99680.38
2022-08-19T09:23:02.899Z,99668.09
2022-08-19T09:25:31.681Z,99673.78
2022-08-19T09:28:05.619Z,99677.97
2022-08-19T09:30:43.929Z,99672.81
2022-08-19T09:33:11.573Z,99663.97
2022-08-19T09:35:50.149Z,99661.84
2022-08-19T09:38:21.154Z,99661.72
2022-08-19T09:40:48.910Z,99649.75
2022-08-19T09:43:33.640Z,99656.38
2022-08-19T09:46:03.702Z,99659.63
2022-08-19T09:48:31.262Z,99650.53
2022-08-19T09:51:05.190Z,99661.59
2022-08-19T09:53:32.841Z,99663.97
2022-08-19T09:56:04.216Z,99664.22
2022-08-19T09:58:32.065Z,99661.94
2022-08-19T10:01:02.287Z,99662.03
2022-08-19T10:03:32.544Z,99664.59
2022-08-19T10:06:01.819Z,99672.78
2022-08-19T10:08:32.257Z,99665.94
2022-08-19T10:11:00.105Z,99676.22
2022-08-19T10:13:49.273Z,99680.09
2022-08-19T10:16:22.407Z,99673.09
2022-08-19T10:18:58.716Z,99669.19
2022-08-19T10:21:29.256Z,99668.88
2022-08-19T10:24:04.772Z,99670.31
2022-08-19T10:26:34.913Z,99669.53
2022-08-19T10:29:02.698Z,99664.72
2022-08-19T10:31:58.828Z,99653.97
2022-08-19T10:34:28.044Z,99653.56
2022-08-19T10:37:00.947Z,99663.34
2022-08-19T10:39:30.541Z,99667.94
2022-08-19T10:41:58.654Z,99654.56
2022-08-19T10:44:32.291Z,99648.09
2022-08-19T10:47:00.966Z,99660.84
2022-08-19T10:49:30.104Z,99649.00
2022-08-19T10:52:18.058Z,99645.69
2022-08-19T10:55:08.282Z,99643.28
2022-08-19T11:00:26.301Z,99637.63
2022-08-19T11:02:53.928Z,99639.19
2022-08-19T11:05:24.193Z,99633.78
2022-08-19T11:07:52.827Z,99632.72
2022-08-19T11:10:22.060Z,99631.19
2022-08-19T11:12:51.557Z,99627.03
2022-08-19T11:15:19.297Z,99614.72
2022-08-19T11:17:46.915Z,99614.50
2022-08-19T11:20:16.809Z,99607.78
2022-08-19T11:22:45.771Z,99601.75
2022-08-19T11:25:15.526Z,99598.09
2022-08-19T11:27:44.440Z,99596.44
2022-08-19T11:30:14.702Z,99593.16
2022-08-19T11:32:48.554Z,99595.69
2022-08-19T11:35:17.360Z,99590.50
2022-08-19T11:37:46.289Z,99593.06
2022-08-19T11:40:14.018Z,99596.81
2022-08-19T11:42:57.042Z,99597.25
2022-08-19T11:45:25.094Z,99593.75
2022-08-19T11:47:52.902Z,99596.63
2022-08-19T11:50:20.933Z,99594.38
2022-08-19T11:52:50.573Z,99592.75
2022-08-19T11:55:18.381Z,99596.69
2022-08-19T11:57:46.255Z,99599.38
2022-08-19T12:00:16.234Z,99598.41
2022-08-19T12:02:44.250Z,99597.84
2022-08-19T12:05:13.154Z,99590.72
2022-08-19T12:07:41.712Z,99602.81
2022-08-19T12:10:11.570Z,99611.44
2022-08-19T12:12:41.286Z,99609.53
2022-08-19T12:15:11.837Z,99611.91
2022-08-19T12:17:40.421Z,99619.28
2022-08-19T12:20:09.753Z,99628.31
2022-08-19T12:22:37.712Z,99611.16
2022-08-19T12:25:07.459Z,99607.25
2022-08-19T12:27:40.663Z,99619.69
2022-08-19T12:30:14.129Z,99621.88
2022-08-19T12:32:41.758Z,99613.34
2022-08-19T12:35:12.309Z,99616.59
2022-08-19T12:37:45.269Z,99620.03
2022-08-19T12:40:24.265Z,99620.50
2022-08-19T12:42:56.177Z,99622.69
2022-08-19T12:45:23.774Z,99612.34
2022-08-19T12:47:54.813Z,99619.81
2022-08-19T12:50:23.216Z,99615.56
2022-08-19T12:52:50.823Z,99620.16
2022-08-19T12:55:19.522Z,99618.63
2022-08-19T12:57:48.268Z,99616.97
2022-08-19T13:00:21.915Z,99611.50
2022-08-19T13:02:51.573Z,99612.13
2022-08-19T13:05:23.473Z,99609.34
2022-08-19T13:07:53.235Z,99602.81
2022-08-19T13:10:22.572Z,99594.22
2022-08-19T13:12:52.531Z,99606.25
2022-08-19T13:15:24.132Z,99602.38
2022-08-19T13:17:54.835Z,99604.78
2022-08-19T13:20:24.016Z,99598.72
2022-08-19T13:22:52.398Z,99596.56
2022-08-19T13:25:20.761Z,99596.03
2022-08-19T13:27:50.122Z,99601.22
2022-08-19T13:30:36.399Z,99596.97
2022-08-19T13:33:12.580Z,99605.22
2022-08-19T13:35:40.929Z,99598.88
2022-08-19T13:38:11.937Z,99600.56
2022-08-19T13:40:41.159Z,99596.22
2022-08-19T13:43:22.356Z,99606.56
2022-08-19T13:45:53.476Z,99605.13
2022-08-19T13:48:22.757Z,99605.81
2022-08-19T13:50:50.494Z,99594.63
2022-08-19T13:53:18.821Z,99602.47
2022-08-19T13:55:47.429Z,99599.31
2022-08-19T13:58:15.520Z,99594.13
2022-08-19T14:00:47.281Z,99601.97
2022-08-19T14:03:15.133Z,99591.53
2022-08-19T14:05:44.132Z,99607.16
2022-08-19T14:08:15.001Z,99594.53
2022-08-19T14:10:44.973Z,99592.13
2022-08-19T14:13:16.648Z,99589.53
2022-08-19T14:15:44.241Z,99580.50
2022-08-19T14:18:12.200Z,99584.66
2022-08-19T14:20:39.915Z,99583.56
2022-08-19T14:23:08.854Z,99582.13
2022-08-19T14:25:36.482Z,99578.31
2022-08-19T14:28:04.502Z,99573.81
2022-08-19T14:30:35.716Z,99568.25
2022-08-19T14:33:03.932Z,99572.84
2022-08-19T14:35:35.501Z,99568.50
2022-08-19T14:38:04.324Z,99562.81
2022-08-19T14:40:33.912Z,99569.75
2022-08-19T14:43:05.048Z,99566.66
2022-08-19T14:45:34.221Z,99572.63
2022-08-19T14:48:01.961Z,99565.94
2022-08-19T14:50:29.971Z,99566.72
2022-08-19T14:53:05.307Z,99559.75
2022-08-19T14:55:38.393Z,99557.63
2022-08-19T14:58:08.183Z,99552.28
2022-08-19T15:00:37.105Z,99558.03
2022-08-19T15:03:05.058Z,99557.44
2022-08-19T15:05:32.874Z,99563.03
2022-08-19T15:08:05.222Z,99557.31
2022-08-19T15:10:32.852Z,99551.88
2022-08-19T15:13:01.798Z,99562.63
2022-08-19T15:15:29.412Z,99553.19
2022-08-19T15:18:02.975Z,99552.91
2022-08-19T15:20:31.585Z,99561.66
2022-08-19T15:23:00.505Z,99560.34
2022-08-19T15:25:29.281Z,99560.53
2022-08-19T15:27:57.214Z,99554.38
2022-08-19T15:30:29.053Z,99570.47
2022-08-19T15:32:57.251Z,99565.69
2022-08-19T15:35:26.130Z,99575.47
2022-08-19T15:37:55.240Z,99573.81
2022-08-19T15:40:25.156Z,99570.69
2022-08-19T15:42:54.008Z,99586.22
2022-08-19T15:45:23.048Z,99583.53
2022-08-19T15:47:52.027Z,99581.97
2022-08-19T15:50:22.048Z,99586.06
2022-08-19T15:52:53.136Z,99580.28
2022-08-19T15:55:33.736Z,99582.03
2022-08-19T15:58:27.957Z,99581.97
2022-08-19T16:01:15.957Z,99585.03
2022-08-19T16:04:02.496Z,99585.47
2022-08-19T16:06:32.601Z,99584.03
2022-08-19T16:09:02.768Z,99571.78
2022-08-19T16:11:39.168Z,99577.38
2022-08-19T16:14:09.527Z,99572.72
2022-08-19T16:16:38.312Z,99573.06
2022-08-19T16:19:11.685Z,99575.00
2022-08-19T16:21:41.635Z,99567.94
2022-08-19T16:24:11.936Z,99571.88
2022-08-19T16:26:40.163Z,99574.78
2022-08-19T16:29:12.018Z,99571.19
2022-08-19T16:31:42.099Z,99571.19
2022-08-19T16:34:11.789Z,99576.66
2022-08-19T16:36:42.135Z,99584.19
2022-08-19T16:39:11.493Z,99584.38
2022-08-19T16:41:40.464Z,99577.88
2022-08-19T16:44:09.780Z,99574.97
2022-08-19T16:46:39.687Z,99578.38
2022-08-19T16:49:07.937Z,99575.56
2022-08-19T16:51:37.332Z,99579.31
2022-08-19T16:54:07.058Z,99581.28
2022-08-19T16:56:35.003Z,99585.31
2022-08-19T16:59:02.942Z,99585.19
2022-08-19T17:01:31.064Z,99589.75
2022-08-19T17:03:58.936Z,99587.09
2022-08-19T17:06:30.668Z,99585.88
2022-08-19T17:09:01.849Z,99590.78
2022-08-19T17:11:31.497Z,99595.06
2022-08-19T17:13:59.154Z,99594.19
2022-08-19T17:16:30.244Z,99595.09
2022-08-19T17:19:00.720Z,99593.31
2022-08-19T17:21:29.794Z,99606.03
2022-08-19T17:23:59.890Z,99600.91
2022-08-19T17:26:28.523Z,99601.25
2022-08-19T17:28:57.668Z,99601.47
2022-08-19T17:31:27.368Z,99604.00
2022-08-19T17:33:56.071Z,99606.06
2022-08-19T17:36:26.261Z,99608.59
2022-08-19T17:38:58.055Z,99599.75
2022-08-19T17:41:30.356Z,99605.03
2022-08-19T17:43:58.623Z,99600.97
2022-08-19T17:46:26.401Z,99609.47
2022-08-19T17:48:57.418Z,99608.75
2022-08-19T17:51:40.327Z,99605.34
2022-08-19T17:54:10.687Z,99607.63
2022-08-19T17:56:39.706Z,99615.13
2022-08-19T17:59:09.097Z,99629.88
2022-08-19T18:01:53.516Z,99633.25
2022-08-19T18:04:24.654Z,99641.84
2022-08-19T18:06:54.374Z,99637.09
2022-08-19T18:09:25.125Z,99634.97
2022-08-19T18:11:56.591Z,99634.31
2022-08-19T18:14:33.282Z,99636.84
2022-08-19T18:17:05.353Z,99650.16
2022-08-19T18:19:41.571Z,99638.91
2022-08-19T18:22:12.084Z,99649.78
2022-08-19T18:24:40.419Z,99656.31
2022-08-19T18:27:09.819Z,99660.41
2022-08-19T18:29:38.371Z,99655.00
2022-08-19T18:32:12.548Z,99656.59
2022-08-19T18:34:41.001Z,99662.94
2022-08-19T18:37:08.709Z,99663.56
2022-08-19T18:39:53.876Z,99670.50
2022-08-19T18:42:40.280Z,99673.78
2022-08-19T18:45:25.996Z,99676.84
2022-08-19T18:48:25.753Z,99673.84
2022-08-19T18:50:56.695Z,99682.00
2022-08-19T18:53:24.347Z,99681.28
2022-08-19T18:55:54.869Z,99688.50
2022-08-19T18:58:26.376Z,99696.13
2022-08-19T19:00:56.672Z,99699.53
2022-08-19T19:03:24.655Z,99702.28
2022-08-19T19:05:52.656Z,99702.28
2022-08-19T19:08:20.649Z,99705.84
2022-08-19T19:10:54.568Z,99717.59
2022-08-19T19:13:22.195Z,99714.25
2022-08-19T19:15:51.498Z,99718.69
2022-08-19T19:18:19.097Z,99721.97
2022-08-19T19:20:46.718Z,99722.84
2022-08-19T19:23:14.301Z,99714.91
2022-08-19T19:25:50.050Z,99728.09
2022-08-19T19:28:18.503Z,99729.06
2022-08-19T19:30:46.104Z,99732.72
2022-08-19T19:33:15.169Z,99738.06
2022-08-19T19:35:45.813Z,99739.13
2022-08-19T19:38:14.994Z,99730.38
2022-08-19T19:40:42.625Z,99734.00
2022-08-19T19:43:10.280Z,99744.50
2022-08-19T19:45:37.933Z,99749.94
2022-08-19T19:48:06.050Z,99744.19
2022-08-19T19:50:34.949Z,99741.63
2022-08-19T19:53:02.575Z,99752.00
2022-08-19T19:55:30.189Z,99745.84
2022-08-19T19:57:58.341Z,99758.91
2022-08-19T20:00:26.682Z,99757.25
2022-08-19T20:02:55.183Z,99760.69
2022-08-19T20:05:23.577Z,99753.66
2022-08-19T20:08:12.134Z,99756.22
2022-08-19T20:10:40.967Z,99760.53
2022-08-19T20:13:09.314Z,99770.06
2022-08-19T20:15:42.307Z,99770.88
2022-08-19T20:18:10.118Z,99779.47
2022-08-19T20:20:37.879Z,99783.00
2022-08-19T20:23:07.272Z,99786.50
2022-08-19T20:25:35.136Z,99789.22
2022-08-19T20:28:05.490Z,99794.47
2022-08-19T20:30:33.302Z,99793.56
2022-08-19T20:33:01.881Z,99799.78
2022-08-19T20:35:29.536Z,99797.09
2022-08-19T20:37:59.757Z,99798.81
2022-08-19T20:40:29.687Z,99802.34
2022-08-19T20:42:57.472Z,99811.94
2022-08-19T20:45:33.534Z,99805.72
2022-08-19T20:48:02.715Z,99800.47
2022-08-19T20:50:30.943Z,99804.72
2022-08-19T20:52:58.600Z,99807.44
2022-08-19T20:55:26.429Z,99813.53
2022-08-19T20:57:56.423Z,99809.19
2022-08-19T21:00:24.120Z,99821.41
2022-08-19T21:02:51.718Z,99821.41
2022-08-19T21:05:19.473Z,99824.88
2022-08-19T21:07:47.150Z,99823.97
2022-08-19T21:10:15.292Z,99830.09
2022-08-19T21:12:44.312Z,99840.63
2022-08-19T21:15:13.586Z,99833.59
2022-08-19T21:17:41.240Z,99845.06
2022-08-19T21:20:10.280Z,99837.09
2022-08-19T21:22:37.968Z,99845.88
2022-08-19T21:25:06.829Z,99844.16
2022-08-19T21:27:34.455Z,99842.44
2022-08-19T21:30:02.116Z,99847.59
2022-08-19T21:32:31.109Z,99851.22
2022-08-19T21:34:58.724Z,99848.59
2022-08-19T21:37:26.420Z,99853.94
2022-08-19T21:39:54.343Z,99839.16
2022-08-19T21:42:22.365Z,99846.19
2022-08-19T21:44:50.110Z,99850.63
2022-08-19T21:47:17.800Z,99852.38
2022-08-19T21:49:47.010Z,99857.63
2022-08-19T21:52:14.973Z,99859.41
2022-08-19T21:54:42.727Z,99863.06
2022-08-19T21:57:11.069Z,99862.19
2022-08-19T21:59:39.593Z,99860.72
2022-08-19T22:02:19.466Z,99865.91
2022-08-19T22:04:50.104Z,99863.38
2022-08-19T22:07:17.777Z,99871.38
2022-08-19T22:09:46.962Z,99865.34
2022-08-19T22:12:23.951Z,99865.16
2022-08-19T22:14:52.801Z,99864.88
2022-08-19T22:17:22.257Z,99862.13
2022-08-19T22:19:52.324Z,99856.25
2022-08-19T22:22:25.653Z,99864.19
2022-08-19T22:24:53.638Z,99863.22
2022-08-19T22:27:21.624Z,99873.03
2022-08-19T22:29:52.639Z,99869.38
2022-08-19T22:32:28.018Z,99878.28
2022-08-19T22:35:00.787Z,99885.06
2022-08-19T22:37:31.657Z,99883.41
2022-08-19T22:40:00.472Z,99880.91
2022-08-19T22:42:31.932Z,99881.81
2022-08-19T22:45:01.567Z,99880.22
2022-08-19T22:47:30.223Z,99871.44
2022-08-19T22:50:03.211Z,99882.19
2022-08-19T22:52:31.646Z,99873.25
2022-08-19T22:55:02.939Z,99873.19
2022-08-19T22:57:30.565Z,99876.84
2022-08-19T22:59:58.932Z,99874.16
2022-08-19T23:02:34.437Z,99881.94
2022-08-19T23:05:04.335Z,99883.69
2022-08-19T23:07:32.033Z,99883.75
2022-08-19T23:10:00.075Z,99881.28
2022-08-19T23:12:30.545Z,99885.78
2022-08-19T23:15:02.648Z,99887.66
2022-08-19T23:17:30.207Z,99876.34
2022-08-19T23:19:57.930Z,99871.28
2022-08-19T23:22:27.349Z,99867.84
2022-08-19T23:24:56.192Z,99871.53
2022-08-19T23:27:41.393Z,99864.75
2022-08-19T23:30:29.049Z,99871.81
2022-08-19T23:33:00.817Z,99876.34
2022-08-19T23:35:34.707Z,99872.75
2022-08-19T23:38:04.714Z,99869.44
2022-08-19T23:40:32.455Z,99865.28
2022-08-19T23:43:00.105Z,99865.47
2022-08-19T23:45:28.346Z,99864.44
2022-08-19T23:48:00.376Z,99864.19
2022-08-19T23:50:28.211Z,99865.84
2022-08-19T23:52:59.697Z,99860.66
2022-08-19T23:55:32.197Z,99865.72
2022-08-19T23:58:00.773Z,99864.69
